Terminal Aerodrome Forecast
Issued by NWS Paducah, KY

Home | Current Version | Previous Version | Graphics & Text | Print | Product List | Glossary On
Versions: 1 2 3 4 5 6 7 8 9 10 11 12 13 14 15 16 17 18 19 20 21
000
FTUS43 KPAH 062320
TAFEVV
TAF
KEVV 062320Z 0700/0724 20006KT P6SM SCT035 BKN250
      TEMPO 0700/0703 BKN035
     FM071200 22010KT 6SM BR OVC040 PROB30 0712/0718 4SM -TSRA
      BKN050CB
     FM071800 21011KT P6SM SCT030 BKN060=

USA.gov is the U.S. government's official web portal to all federal, state and local government web resources and services.